createdAt,value
2022-11-19T00:01:42.784Z,23.30
2022-11-19T00:12:07.700Z,14.80
2022-11-19T00:17:11.011Z,11.70
2022-11-19T00:27:17.629Z,12.70
2022-11-19T00:37:24.045Z,9.60
2022-11-19T00:42:28.379Z,8.70
2022-11-19T00:47:31.486Z,7.40
2022-11-19T00:57:38.312Z,10.20
2022-11-19T01:02:41.313Z,16.50
2022-11-19T01:07:44.623Z,11.00
2022-11-19T01:13:07.191Z,12.40
2022-11-19T01:18:10.289Z,16.30
2022-11-19T01:23:13.702Z,12.50
2022-11-19T01:28:17.117Z,12.30
2022-11-19T01:38:23.836Z,9.00
2022-11-19T01:43:53.470Z,10.60
2022-11-19T01:49:04.761Z,14.00
2022-11-19T01:54:15.880Z,9.30
2022-11-19T01:59:20.316Z,8.20
2022-11-19T02:04:24.624Z,9.10
2022-11-19T02:09:29.446Z,12.90
2022-11-19T02:15:15.687Z,10.20
2022-11-19T02:20:37.434Z,8.60
2022-11-19T02:26:31.837Z,7.80
2022-11-19T02:32:05.048Z,7.90
2022-11-19T02:37:14.091Z,8.30
2022-11-19T02:42:37.680Z,9.10
2022-11-19T02:47:45.187Z,8.80
2022-11-19T02:52:49.366Z,10.20
2022-11-19T02:58:06.451Z,11.30
2022-11-19T03:03:38.745Z,12.00
2022-11-19T03:08:42.870Z,13.10
2022-11-19T03:14:25.093Z,13.00
2022-11-19T03:19:39.771Z,13.80
2022-11-19T03:24:50.141Z,13.10
2022-11-19T03:29:57.241Z,13.70
2022-11-19T03:35:05.569Z,12.70
2022-11-19T03:40:10.752Z,13.10
2022-11-19T03:45:17.994Z,13.40
2022-11-19T03:50:29.122Z,14.20
2022-11-19T03:55:43.588Z,13.00
2022-11-19T04:00:46.903Z,14.50
2022-11-19T04:05:50.519Z,14.40
2022-11-19T04:10:53.829Z,14.70
2022-11-19T04:21:00.346Z,14.30
2022-11-19T04:31:06.965Z,15.00
2022-11-19T04:36:10.793Z,14.80
2022-11-19T04:41:14.096Z,14.40
2022-11-19T04:51:20.614Z,14.60
2022-11-19T04:56:23.927Z,16.00
2022-11-19T05:01:27.384Z,16.30
2022-11-19T05:06:31.364Z,12.70
2022-11-19T05:11:34.572Z,12.30
2022-11-19T05:16:37.987Z,11.80
2022-11-19T05:26:44.298Z,9.30
2022-11-19T05:36:50.618Z,9.70
2022-11-19T05:46:57.944Z,8.90
2022-11-19T05:52:01.667Z,9.20
2022-11-19T05:57:05.902Z,7.90
2022-11-19T06:02:09.316Z,11.80
2022-11-19T06:07:12.870Z,12.60
2022-11-19T06:12:16.338Z,10.00
2022-11-19T06:22:22.757Z,9.60
2022-11-19T06:27:26.066Z,9.80
2022-11-19T06:32:29.479Z,10.90
2022-11-19T06:37:32.683Z,10.70
2022-11-19T06:42:38.865Z,10.40
2022-11-19T06:47:42.992Z,12.60
2022-11-19T06:52:46.505Z,12.30
2022-11-19T07:02:53.024Z,11.70
2022-11-19T07:13:06.713Z,9.90
2022-11-19T07:18:10.593Z,11.80
2022-11-19T07:23:13.944Z,12.00
2022-11-19T07:28:17.254Z,13.60
2022-11-19T07:38:23.671Z,17.20
2022-11-19T07:43:26.984Z,47.20
2022-11-19T07:53:33.296Z,22.70
2022-11-19T08:03:42.886Z,52.00
2022-11-19T08:08:47.327Z,34.70
2022-11-19T08:13:50.737Z,24.00
2022-11-19T08:23:57.148Z,21.90
2022-11-19T08:29:01.074Z,20.10
2022-11-19T08:34:04.487Z,25.00
2022-11-19T08:39:07.899Z,22.10
2022-11-19T08:49:14.427Z,18.20
2022-11-19T08:54:18.050Z,16.80
2022-11-19T08:59:22.383Z,20.40
2022-11-19T09:04:26.194Z,15.30
2022-11-19T09:09:29.402Z,29.60
2022-11-19T09:14:32.811Z,27.10
2022-11-19T09:24:39.228Z,25.10
2022-11-19T09:34:46.259Z,14.40
2022-11-19T09:39:49.569Z,35.30
2022-11-19T09:50:24.551Z,15.50
2022-11-19T09:55:35.009Z,14.00
2022-11-19T10:00:39.368Z,29.90
2022-11-19T10:06:01.317Z,13.40
2022-11-19T10:11:15.493Z,19.20
2022-11-19T10:16:33.413Z,13.10
2022-11-19T10:22:02.344Z,12.20
2022-11-19T10:27:12.861Z,15.30
2022-11-19T10:32:35.688Z,26.30
2022-11-19T10:37:47.088Z,15.80
2022-11-19T10:42:56.286Z,20.00
2022-11-19T10:48:27.511Z,20.50
2022-11-19T10:53:36.863Z,22.80
2022-11-19T10:58:46.101Z,21.70
2022-11-19T11:04:08.489Z,25.90
2022-11-19T11:09:14.540Z,24.90
2022-11-19T11:14:41.924Z,15.50
2022-11-19T11:19:45.527Z,16.80
2022-11-19T11:24:49.251Z,17.50
2022-11-19T11:30:25.840Z,20.60
2022-11-19T11:35:35.032Z,14.50
2022-11-19T11:40:39.371Z,22.90
2022-11-19T11:45:42.528Z,28.30
2022-11-19T11:55:58.058Z,16.10
2022-11-19T12:01:20.422Z,52.30
2022-11-19T12:06:36.727Z,15.90
2022-11-19T12:11:55.090Z,14.10
2022-11-19T12:17:17.907Z,13.10
2022-11-19T12:22:39.805Z,37.70
2022-11-19T12:27:54.994Z,17.80
2022-11-19T12:33:12.847Z,15.10
2022-11-19T12:38:29.879Z,19.20
2022-11-19T12:43:58.482Z,20.70
2022-11-19T12:49:13.463Z,19.80
2022-11-19T12:54:44.830Z,25.20
2022-11-19T13:00:11.496Z,12.00
2022-11-19T13:05:20.748Z,18.30
2022-11-19T13:10:34.968Z,25.90
2022-11-19T13:15:43.644Z,24.00
2022-11-19T13:20:52.690Z,26.50
2022-11-19T13:26:03.470Z,14.60
2022-11-19T13:31:14.869Z,13.70
2022-11-19T13:36:25.654Z,15.80
2022-11-19T13:41:56.977Z,17.90
2022-11-19T13:47:01.836Z,32.60
2022-11-19T13:52:15.317Z,33.00
2022-11-19T13:57:30.199Z,66.60
2022-11-19T14:02:39.039Z,47.80
2022-11-19T14:07:50.551Z,45.50
2022-11-19T14:13:15.460Z,45.20
2022-11-19T14:18:36.996Z,40.60
2022-11-19T14:24:08.670Z,54.10
2022-11-19T14:29:27.011Z,51.30
2022-11-19T14:34:35.650Z,39.40
2022-11-19T14:39:43.792Z,26.60
2022-11-19T14:45:08.298Z,77.50
2022-11-19T14:50:28.538Z,74.70
2022-11-19T14:55:34.795Z,59.00
2022-11-19T15:00:41.220Z,120.40
2022-11-19T15:05:46.832Z,87.80
2022-11-19T15:11:04.275Z,87.40
2022-11-19T15:16:07.788Z,62.80
2022-11-19T15:21:49.500Z,45.00
2022-11-19T15:27:03.766Z,60.70
2022-11-19T15:32:22.957Z,54.50
2022-11-19T15:38:20.656Z,69.10
2022-11-19T15:43:45.866Z,30.20
2022-11-19T15:49:02.040Z,44.00
2022-11-19T15:54:12.036Z,35.80
2022-11-19T15:59:19.030Z,39.40
2022-11-19T16:04:23.301Z,47.80
2022-11-19T16:09:28.114Z,32.30
2022-11-19T16:14:49.959Z,51.60
2022-11-19T16:20:11.808Z,43.80
2022-11-19T16:25:34.774Z,45.30
2022-11-19T16:31:04.501Z,37.50
2022-11-19T16:36:20.819Z,96.50
2022-11-19T16:41:43.892Z,57.40
2022-11-19T16:46:48.532Z,38.10
2022-11-19T16:51:55.225Z,44.60
2022-11-19T16:56:59.148Z,63.00
2022-11-19T17:02:03.537Z,54.90
2022-11-19T17:07:14.767Z,79.80
2022-11-19T17:12:29.863Z,99.30
2022-11-19T17:17:40.517Z,65.40
2022-11-19T17:22:44.577Z,55.40
2022-11-19T17:27:56.744Z,53.10
2022-11-19T17:33:05.489Z,81.90
2022-11-19T17:38:12.553Z,71.70
2022-11-19T17:43:43.999Z,67.80
2022-11-19T17:48:49.257Z,59.00
2022-11-19T17:53:53.485Z,69.70
2022-11-19T17:58:58.025Z,45.90
2022-11-19T18:04:01.646Z,67.60
2022-11-19T18:09:05.977Z,75.30
2022-11-19T18:14:10.722Z,69.20
2022-11-19T18:19:25.306Z,56.30
2022-11-19T18:24:28.811Z,57.70
2022-11-19T18:29:32.323Z,30.50
2022-11-19T18:34:35.433Z,44.50
2022-11-19T18:39:38.945Z,32.90
2022-11-19T18:44:43.784Z,33.60
2022-11-19T18:49:47.101Z,157.00
2022-11-19T18:59:54.437Z,42.00
2022-11-19T19:04:58.312Z,42.20
2022-11-19T19:10:01.880Z,40.50
2022-11-19T19:15:10.337Z,53.10
2022-11-19T19:20:14.668Z,51.50
2022-11-19T19:25:18.345Z,39.00
2022-11-19T19:30:21.777Z,37.00
2022-11-19T19:35:24.985Z,38.10
2022-11-19T19:40:28.631Z,31.20
2022-11-19T19:45:35.797Z,58.60
2022-11-19T19:50:39.319Z,69.40
2022-11-19T19:55:43.255Z,33.60
2022-11-19T20:00:47.072Z,40.30
2022-11-19T20:05:51.808Z,35.80
2022-11-19T20:10:56.558Z,30.20
2022-11-19T20:16:24.379Z,39.70
2022-11-19T20:21:31.981Z,38.20
2022-11-19T20:26:35.269Z,25.70
2022-11-19T20:31:39.082Z,28.60
2022-11-19T20:36:43.109Z,29.60
2022-11-19T20:42:04.748Z,31.80
2022-11-19T20:47:08.577Z,30.20
2022-11-19T20:52:14.224Z,47.10
2022-11-19T20:57:19.084Z,36.70
2022-11-19T21:02:23.451Z,42.70
2022-11-19T21:07:27.185Z,31.50
2022-11-19T21:12:30.758Z,30.30
2022-11-19T21:17:34.170Z,30.10
2022-11-19T21:27:40.791Z,34.60
2022-11-19T21:32:44.099Z,34.80
2022-11-19T21:37:47.650Z,30.40
2022-11-19T21:42:51.338Z,32.80
2022-11-19T21:47:54.759Z,32.30
2022-11-19T21:52:58.057Z,32.20
2022-11-19T22:03:08.882Z,28.80
2022-11-19T22:08:12.597Z,32.70
2022-11-19T22:13:15.806Z,31.80
2022-11-19T22:23:24.407Z,27.80
2022-11-19T22:28:27.780Z,35.30
2022-11-19T22:33:36.550Z,36.90
2022-11-19T22:38:40.053Z,32.80
2022-11-19T22:43:43.963Z,33.40
2022-11-19T22:48:47.677Z,35.10
2022-11-19T22:53:52.899Z,33.80
2022-11-19T22:58:56.924Z,36.90
2022-11-19T23:04:03.034Z,36.60
2022-11-19T23:09:07.792Z,31.80
2022-11-19T23:14:15.498Z,36.60
2022-11-19T23:19:19.929Z,29.60
2022-11-19T23:24:23.348Z,33.20
2022-11-19T23:34:29.662Z,32.20
2022-11-19T23:44:35.973Z,27.40
2022-11-19T23:49:39.389Z,30.90
2022-11-19T23:59:45.698Z,32.90
